QRA weather

Rand Airport
Johannesburg, Gauteng, South Africa

Public forecast

Using degrees Celsius for public forecast. Weather courtesy of forecast.io.

METAR (pilot weather report)

Report is more than 6 hours old.

Retrieved 2017/06/25 10:00 UTC (17 hours ago):

FAGM 251000Z 24006KT CAVOK 16/M04 Q1029

TAF (pilot weather forecast)

Forecast is more than 12 hours old.

Closest forecast is OR Tambo International Airport, 8.0 nm (14.9 km) NE. Retrieved 2017/06/25 00:00 UTC (1 day ago):

TAF FAOR 252204Z 2600/2706 VRB04KT CAVOK BECMG 2604/2606 02007KT FM261300 02015KT CAVOK BECMG 2613/2615 SCT045 BECMG 2622/2624 BKN007 PROB30 TEMPO 2702/2706 0900 FG BKN005 TX18/2613ZTN06/2704Z